Linwood, Massachusetts
Current Conditions -  °F | °C
As of 3:35 PM on Wednesday 26 Nov 2014 (Local Time) from KSFZ Reporting Station
Overcast Overcast  
Wind Chill: 24°   Ceiling: 400
Heat Index: 34°   Visibility: 3mi
Dew Point: 27°   Wind: 15mph
Humidity: 75%   Direction: 30°NNE
Pressure: 29.88"   Gusts: 26mph
Location:  42.1°N, 71.65°W
Report Text: KSFZ 262035Z 03013G23KT 3SM OVC004 01/M03 A2988 RMK AO1
Loading
Personal Weather Stations






























Interactive Weather Map New forecast layout! Learn more

10-Day Weather Forecast

Advertisements
Track Severe Weather on mobile